createdAt,value
2019-02-23T00:02:02.483Z,8.89
2019-02-23T00:07:53.054Z,8.82
2019-02-23T00:10:35.665Z,8.79
2019-02-23T00:13:25.387Z,8.81
2019-02-23T00:16:08.147Z,8.75
2019-02-23T00:18:58.116Z,8.74
2019-02-23T00:21:40.402Z,8.69
2019-02-23T00:24:30.020Z,8.65
2019-02-23T00:27:12.157Z,8.62
2019-02-23T00:30:02.363Z,8.63
2019-02-23T00:32:45.283Z,8.59
2019-02-23T00:35:26.065Z,8.60
2019-02-23T00:38:16.246Z,8.52
2019-02-23T00:40:58.511Z,8.56
2019-02-23T00:43:48.439Z,8.45
2019-02-23T00:46:30.978Z,8.46
2019-02-23T00:52:27.838Z,8.43
2019-02-23T00:58:19.293Z,8.37
2019-02-23T01:01:02.017Z,8.32
2019-02-23T01:06:39.907Z,8.28
2019-02-23T01:09:29.576Z,8.30
2019-02-23T01:12:10.697Z,8.33
2019-02-23T01:14:52.834Z,8.42
2019-02-23T01:18:01.822Z,8.31
2019-02-23T01:20:44.414Z,8.24
2019-02-23T01:23:34.039Z,8.23
2019-02-23T01:26:16.265Z,8.21
2019-02-23T01:29:05.849Z,8.17
2019-02-23T01:31:48.378Z,8.09
2019-02-23T01:34:37.954Z,8.05
2019-02-23T01:37:20.211Z,8.03
2019-02-23T01:40:10.897Z,7.96
2019-02-23T01:42:53.057Z,7.92
2019-02-23T01:45:42.818Z,7.91
2019-02-23T01:48:25.190Z,7.87
2019-02-23T01:54:21.582Z,7.93
2019-02-23T01:57:11.196Z,7.88
2019-02-23T02:00:01.191Z,7.87
2019-02-23T02:02:43.946Z,7.79
2019-02-23T02:08:21.821Z,7.78
2019-02-23T02:14:04.457Z,7.71
2019-02-23T02:16:54.039Z,7.67
2019-02-23T02:19:36.903Z,7.65
2019-02-23T02:22:26.498Z,7.67
2019-02-23T02:25:08.821Z,7.66
2019-02-23T02:30:59.612Z,7.53
2019-02-23T02:34:27.588Z,7.66
2019-02-23T02:37:08.295Z,7.61
2019-02-23T02:39:50.795Z,7.60
2019-02-23T02:42:40.428Z,7.57
2019-02-23T02:45:22.783Z,7.55
2019-02-23T02:48:12.700Z,7.57
2019-02-23T02:50:55.190Z,7.51
2019-02-23T02:54:03.686Z,7.50
2019-02-23T02:56:45.992Z,7.46
2019-02-23T02:59:35.597Z,7.50
2019-02-23T03:02:17.552Z,7.46
2019-02-23T03:05:07.377Z,7.38
2019-02-23T03:07:49.979Z,7.37
2019-02-23T03:10:39.926Z,7.28
2019-02-23T03:13:22.759Z,7.25
2019-02-23T03:16:12.678Z,7.19
2019-02-23T03:18:54.866Z,7.14
2019-02-23T03:21:44.781Z,7.15
2019-02-23T03:24:27.103Z,7.13
2019-02-23T03:27:35.639Z,7.13
2019-02-23T03:30:18.336Z,7.13
2019-02-23T03:33:08.008Z,7.18
2019-02-23T03:35:50.522Z,7.06
2019-02-23T03:38:40.196Z,7.11
2019-02-23T03:41:22.387Z,7.04
2019-02-23T03:44:12.385Z,7.02
2019-02-23T03:46:54.855Z,7.01
2019-02-23T03:50:03.434Z,7.01
2019-02-23T03:52:46.065Z,6.96
2019-02-23T03:58:43.474Z,6.89
2019-02-23T04:04:39.488Z,6.84
2019-02-23T04:10:30.006Z,6.80
2019-02-23T04:13:12.790Z,6.71
2019-02-23T04:18:50.292Z,6.62
2019-02-23T04:21:40.196Z,6.62
2019-02-23T04:24:22.750Z,6.58
2019-02-23T04:27:31.272Z,6.59
2019-02-23T04:30:13.130Z,6.53
2019-02-23T04:33:02.794Z,6.49
2019-02-23T04:35:46.559Z,6.52
2019-02-23T04:38:55.223Z,6.46
2019-02-23T04:41:35.926Z,6.48
2019-02-23T04:44:18.270Z,6.45
2019-02-23T04:47:08.093Z,6.43
2019-02-23T04:49:53.972Z,6.42
2019-02-23T04:55:44.704Z,6.30
2019-02-23T05:01:40.917Z,6.22
2019-02-23T05:04:30.525Z,6.20
2019-02-23T05:07:20.415Z,6.10
2019-02-23T05:10:02.838Z,6.16
2019-02-23T05:13:13.138Z,6.04
2019-02-23T05:15:53.908Z,6.08
2019-02-23T05:18:36.803Z,6.03
2019-02-23T05:21:27.049Z,5.96
2019-02-23T05:24:10.717Z,5.97
2019-02-23T05:27:00.369Z,5.89
2019-02-23T05:29:41.014Z,5.89
2019-02-23T05:35:37.752Z,5.82
2019-02-23T05:38:27.421Z,5.70
2019-02-23T05:41:27.939Z,5.69
2019-02-23T05:44:10.303Z,5.64
2019-02-23T05:47:30.669Z,5.62
2019-02-23T05:50:01.593Z,5.62
2019-02-23T05:52:43.922Z,5.59
2019-02-23T05:58:40.815Z,5.54
2019-02-23T06:01:30.436Z,5.59
2019-02-23T06:04:20.095Z,5.57
2019-02-23T06:07:02.623Z,5.56
2019-02-23T06:10:11.211Z,5.54
2019-02-23T06:12:53.958Z,5.60
2019-02-23T06:16:02.880Z,5.53
2019-02-23T06:18:45.523Z,5.57
2019-02-23T06:21:35.148Z,5.54
2019-02-23T06:24:17.728Z,5.46
2019-02-23T06:27:07.634Z,5.44
2019-02-23T06:29:48.415Z,5.42
2019-02-23T06:32:30.639Z,5.40
2019-02-23T06:38:27.526Z,5.40
2019-02-23T06:44:13.834Z,5.42
2019-02-23T06:47:03.466Z,5.48
2019-02-23T06:50:12.106Z,5.45
2019-02-23T06:52:54.248Z,5.45
2019-02-23T06:55:44.199Z,5.40
2019-02-23T06:58:26.347Z,5.40
2019-02-23T07:01:16.180Z,5.42
2019-02-23T07:03:58.600Z,5.46
2019-02-23T07:07:07.118Z,5.51
2019-02-23T07:09:49.700Z,5.55
2019-02-23T07:12:39.326Z,5.60
2019-02-23T07:15:20.136Z,5.65
2019-02-23T07:18:02.887Z,5.74
2019-02-23T07:20:52.489Z,5.81
2019-02-23T07:23:35.339Z,5.92
2019-02-23T07:26:25.037Z,5.94
2019-02-23T07:29:07.554Z,5.94
2019-02-23T07:35:04.144Z,6.11
2019-02-23T07:40:54.739Z,6.33
2019-02-23T07:43:36.681Z,6.51
2019-02-23T07:46:19.000Z,6.27
2019-02-23T07:52:25.771Z,6.65
2019-02-23T07:55:06.837Z,6.73
2019-02-23T07:58:15.350Z,6.68
2019-02-23T08:00:57.369Z,6.85
2019-02-23T08:04:06.139Z,6.70
2019-02-23T08:06:48.567Z,6.90
2019-02-23T08:09:57.045Z,6.56
2019-02-23T08:12:39.063Z,6.78
2019-02-23T08:15:28.761Z,6.90
2019-02-23T08:18:13.127Z,6.87
2019-02-23T08:21:21.626Z,6.89
2019-02-23T08:24:03.535Z,7.07
2019-02-23T08:26:53.199Z,7.31
2019-02-23T08:29:35.767Z,6.93
2019-02-23T08:32:25.443Z,7.37
2019-02-23T08:35:07.717Z,7.62
2019-02-23T08:37:57.357Z,7.71
2019-02-23T08:40:39.423Z,7.84
2019-02-23T08:43:47.946Z,7.65
2019-02-23T08:46:30.174Z,8.29
2019-02-23T08:49:38.698Z,8.44
2019-02-23T08:52:21.671Z,8.91
2019-02-23T08:55:30.486Z,9.02
2019-02-23T08:58:13.117Z,8.87
2019-02-23T09:01:02.744Z,8.46
2019-02-23T09:03:45.053Z,8.66
2019-02-23T09:06:35.225Z,9.58
2019-02-23T09:09:17.813Z,9.86
2019-02-23T09:12:07.462Z,9.62
2019-02-23T09:14:50.573Z,9.70
2019-02-23T09:17:32.623Z,9.82
2019-02-23T09:20:29.063Z,10.17
2019-02-23T09:23:08.283Z,9.86
2019-02-23T09:25:57.966Z,9.31
2019-02-23T09:28:38.557Z,9.74
2019-02-23T09:31:09.053Z,9.91
2019-02-23T09:33:39.612Z,10.03
2019-02-23T09:36:10.183Z,9.58
2019-02-23T09:38:40.923Z,9.82
2019-02-23T09:41:11.705Z,10.07
2019-02-23T09:43:42.483Z,10.62
2019-02-23T09:46:12.969Z,10.45
2019-02-23T09:48:43.515Z,10.73
2019-02-23T09:51:14.102Z,10.38
2019-02-23T09:53:44.590Z,10.15
2019-02-23T09:56:15.097Z,10.20
2019-02-23T09:58:45.995Z,10.13
2019-02-23T10:01:17.078Z,10.04
2019-02-23T10:03:47.574Z,10.44
2019-02-23T10:06:18.471Z,11.46
2019-02-23T10:08:49.407Z,10.63
2019-02-23T10:11:20.248Z,11.78
2019-02-23T10:13:50.796Z,11.87
2019-02-23T10:16:21.557Z,12.39
2019-02-23T10:18:52.196Z,12.16
2019-02-23T10:21:23.602Z,12.49
2019-02-23T10:24:00.642Z,11.96
2019-02-23T10:26:32.245Z,12.26
2019-02-23T10:29:03.288Z,12.72
2019-02-23T10:31:33.814Z,12.70
2019-02-23T10:34:04.420Z,12.68
2019-02-23T10:36:34.990Z,11.66
2019-02-23T10:39:06.004Z,11.52
2019-02-23T10:41:36.867Z,12.09
2019-02-23T10:44:07.351Z,11.70
2019-02-23T10:46:38.071Z,12.59
2019-02-23T10:49:08.660Z,12.35
2019-02-23T10:51:39.125Z,11.97
2019-02-23T10:54:09.915Z,12.90
2019-02-23T10:56:40.597Z,12.95
2019-02-23T10:59:11.100Z,12.81
2019-02-23T11:01:42.145Z,13.02
2019-02-23T11:04:12.964Z,13.01
2019-02-23T11:06:45.767Z,12.79
2019-02-23T11:09:18.919Z,13.41
2019-02-23T11:11:49.651Z,13.88
2019-02-23T11:14:20.370Z,13.42
2019-02-23T11:16:51.675Z,12.96
2019-02-23T11:19:23.233Z,12.61
2019-02-23T11:21:54.760Z,13.12
2019-02-23T11:24:25.522Z,13.27
2019-02-23T11:26:56.607Z,13.63
2019-02-23T11:29:27.637Z,13.54
2019-02-23T11:31:58.688Z,13.04
2019-02-23T11:34:29.562Z,13.14
2019-02-23T11:37:00.449Z,13.39
2019-02-23T11:39:31.380Z,13.96
2019-02-23T11:42:02.166Z,12.86
2019-02-23T11:44:32.976Z,13.90
2019-02-23T11:47:03.971Z,12.87
2019-02-23T11:49:34.771Z,13.50
2019-02-23T11:52:05.539Z,13.60
2019-02-23T11:54:36.250Z,13.85
2019-02-23T11:57:06.969Z,13.32
2019-02-23T11:59:37.763Z,13.49
2019-02-23T12:02:08.744Z,13.82
2019-02-23T12:04:39.517Z,14.19
2019-02-23T12:07:10.468Z,14.57
2019-02-23T12:09:41.548Z,15.39
2019-02-23T12:12:12.571Z,15.01
2019-02-23T12:14:44.998Z,14.58
2019-02-23T12:17:15.886Z,14.40
2019-02-23T12:19:46.864Z,15.18
2019-02-23T12:22:17.807Z,14.72
2019-02-23T12:24:48.592Z,14.27
2019-02-23T12:27:19.515Z,13.72
2019-02-23T12:29:50.574Z,13.97
2019-02-23T12:32:21.406Z,13.70
2019-02-23T12:34:52.249Z,14.23
2019-02-23T12:37:23.559Z,13.56
2019-02-23T12:39:54.634Z,14.08
2019-02-23T12:42:27.560Z,13.91
2019-02-23T12:45:00.617Z,13.79
2019-02-23T12:47:31.287Z,12.94
2019-02-23T12:50:01.966Z,13.83
2019-02-23T12:52:32.734Z,14.15
2019-02-23T12:55:03.435Z,14.63
2019-02-23T12:57:34.559Z,14.55
2019-02-23T13:00:05.793Z,14.47
2019-02-23T13:02:36.503Z,13.69
2019-02-23T13:05:07.318Z,13.94
2019-02-23T13:07:37.831Z,14.52
2019-02-23T13:10:11.303Z,14.68
2019-02-23T13:13:22.281Z,15.04
2019-02-23T13:16:30.025Z,15.28
2019-02-23T13:19:45.975Z,14.32
2019-02-23T13:22:35.944Z,14.92
2019-02-23T13:25:32.556Z,15.16
2019-02-23T13:28:56.262Z,14.98
2019-02-23T13:32:44.611Z,15.07
2019-02-23T13:35:56.386Z,14.48
2019-02-23T13:39:05.908Z,14.62
2019-02-23T13:42:18.260Z,14.93
2019-02-23T13:45:35.613Z,14.86
2019-02-23T13:48:39.191Z,14.31
2019-02-23T13:51:53.008Z,14.26
2019-02-23T13:55:17.724Z,14.80
2019-02-23T13:58:38.093Z,14.22
2019-02-23T14:02:03.257Z,14.10
2019-02-23T14:05:15.329Z,14.34
2019-02-23T14:08:34.474Z,13.82
2019-02-23T14:11:37.532Z,13.76
2019-02-23T14:15:16.843Z,14.43
2019-02-23T14:18:32.613Z,14.34
2019-02-23T14:21:56.653Z,14.53
2019-02-23T14:25:29.052Z,14.22
2019-02-23T14:29:09.573Z,14.71
2019-02-23T14:32:47.103Z,14.07
2019-02-23T14:36:07.451Z,14.63
2019-02-23T14:40:22.947Z,14.18
2019-02-23T14:44:04.446Z,13.99
2019-02-23T14:47:53.384Z,14.40
2019-02-23T14:50:45.339Z,14.05
2019-02-23T14:53:52.633Z,14.02
2019-02-23T14:57:12.145Z,14.05
2019-02-23T15:00:34.954Z,13.93
2019-02-23T15:04:16.335Z,13.75
2019-02-23T15:07:30.924Z,13.48
2019-02-23T15:10:50.960Z,13.39
2019-02-23T15:14:05.488Z,13.63
2019-02-23T15:17:36.453Z,13.36
2019-02-23T15:20:51.679Z,13.44
2019-02-23T15:24:40.787Z,13.52
2019-02-23T15:28:03.368Z,13.38
2019-02-23T15:31:24.725Z,13.43
2019-02-23T15:34:37.384Z,13.43
2019-02-23T15:37:35.378Z,13.12
2019-02-23T15:41:09.711Z,13.12
2019-02-23T15:44:36.405Z,13.01
2019-02-23T15:47:35.791Z,13.06
2019-02-23T15:50:13.064Z,13.05
2019-02-23T15:52:39.098Z,12.96
2019-02-23T15:55:10.469Z,12.81
2019-02-23T15:57:41.856Z,12.84
2019-02-23T16:00:14.288Z,12.80
2019-02-23T16:02:45.270Z,12.75
2019-02-23T16:05:16.286Z,12.72
2019-02-23T16:07:46.832Z,12.64
2019-02-23T16:10:18.159Z,12.71
2019-02-23T16:12:49.028Z,12.71
2019-02-23T16:15:19.517Z,12.58
2019-02-23T16:17:50.326Z,12.62
2019-02-23T16:20:21.336Z,12.53
2019-02-23T16:22:52.226Z,12.58
2019-02-23T16:25:24.098Z,12.54
2019-02-23T16:27:55.748Z,12.44
2019-02-23T16:30:26.258Z,12.33
2019-02-23T16:32:57.428Z,12.34
2019-02-23T16:35:28.015Z,12.35
2019-02-23T16:37:58.999Z,12.29
2019-02-23T16:40:29.518Z,12.24
2019-02-23T16:43:00.129Z,12.13
2019-02-23T16:45:30.909Z,12.18
2019-02-23T16:48:01.941Z,12.14
2019-02-23T16:50:32.532Z,12.14
2019-02-23T16:53:03.665Z,12.05
2019-02-23T16:55:34.171Z,12.04
2019-02-23T16:58:04.789Z,11.98
2019-02-23T17:00:35.374Z,11.87
2019-02-23T17:03:06.096Z,11.78
2019-02-23T17:05:36.589Z,11.72
2019-02-23T17:08:07.446Z,11.69
2019-02-23T17:10:37.942Z,11.64
2019-02-23T17:13:08.942Z,11.60
2019-02-23T17:15:39.489Z,11.55
2019-02-23T17:18:09.964Z,11.43
2019-02-23T17:20:40.445Z,11.38
2019-02-23T17:23:10.958Z,11.31
2019-02-23T17:25:41.683Z,11.29
2019-02-23T17:28:13.364Z,11.17
2019-02-23T17:30:45.837Z,11.12
2019-02-23T17:33:16.622Z,11.08
2019-02-23T17:35:47.179Z,11.04
2019-02-23T17:38:18.071Z,11.06
2019-02-23T17:40:48.870Z,10.97
2019-02-23T17:43:19.644Z,10.92
2019-02-23T17:45:52.877Z,10.87
2019-02-23T17:48:23.391Z,10.78
2019-02-23T17:50:55.031Z,10.74
2019-02-23T17:53:34.936Z,10.73
2019-02-23T17:56:12.111Z,10.67
2019-02-23T17:58:38.089Z,10.63
2019-02-23T18:01:09.025Z,10.67
2019-02-23T18:03:39.524Z,10.56
2019-02-23T18:06:11.247Z,10.59
2019-02-23T18:08:41.768Z,10.51
2019-02-23T18:11:12.258Z,10.44
2019-02-23T18:13:42.868Z,10.48
2019-02-23T18:16:16.294Z,10.44
2019-02-23T18:18:49.650Z,10.41
2019-02-23T18:21:20.971Z,10.32
2019-02-23T18:23:51.464Z,10.29
2019-02-23T18:26:22.002Z,10.22
2019-02-23T18:28:53.693Z,10.12
2019-02-23T18:31:24.434Z,10.09
2019-02-23T18:33:55.027Z,10.01
2019-02-23T18:36:25.598Z,10.02
2019-02-23T18:38:56.423Z,9.92
2019-02-23T18:41:26.958Z,9.93
2019-02-23T18:43:57.425Z,9.87
2019-02-23T18:46:27.947Z,9.90
2019-02-23T18:48:59.428Z,9.81
2019-02-23T18:51:30.155Z,9.76
2019-02-23T18:54:00.664Z,9.76
2019-02-23T18:56:31.195Z,9.67
2019-02-23T18:59:02.097Z,9.68
2019-02-23T19:01:32.601Z,9.62
2019-02-23T19:04:03.135Z,9.55
2019-02-23T19:06:33.648Z,9.54
2019-02-23T19:09:04.670Z,9.50
2019-02-23T19:11:35.216Z,9.44
2019-02-23T19:14:05.694Z,9.46
2019-02-23T19:16:36.180Z,9.40
2019-02-23T19:19:06.780Z,9.36
2019-02-23T19:21:37.259Z,9.33
2019-02-23T19:24:09.527Z,9.31
2019-02-23T19:26:40.363Z,9.26
2019-02-23T19:29:10.828Z,9.25
2019-02-23T19:31:41.302Z,9.17
2019-02-23T19:34:11.787Z,9.12
2019-02-23T19:36:42.538Z,9.04
2019-02-23T19:39:13.121Z,8.97
2019-02-23T19:41:43.620Z,8.90
2019-02-23T19:44:14.100Z,8.88
2019-02-23T19:46:58.107Z,8.83
2019-02-23T19:49:28.954Z,8.79
2019-02-23T19:51:59.502Z,8.71
2019-02-23T19:54:30.026Z,8.67
2019-02-23T19:57:00.542Z,8.61
2019-02-23T19:59:31.706Z,8.61
2019-02-23T20:02:02.232Z,8.56
2019-02-23T20:04:32.710Z,8.54
2019-02-23T20:07:03.216Z,8.47
2019-02-23T20:09:34.009Z,8.45
2019-02-23T20:12:04.784Z,8.39
2019-02-23T20:14:36.057Z,8.39
2019-02-23T20:17:06.748Z,8.32
2019-02-23T20:19:37.413Z,8.28
2019-02-23T20:22:08.130Z,8.25
2019-02-23T20:24:39.481Z,8.27
2019-02-23T20:27:10.102Z,8.22
2019-02-23T20:29:40.654Z,8.17
2019-02-23T20:32:11.378Z,8.14
2019-02-23T20:34:42.263Z,8.14
2019-02-23T20:37:13.158Z,8.03
2019-02-23T20:39:44.581Z,8.03
2019-02-23T20:42:15.842Z,8.02
2019-02-23T20:44:46.808Z,7.93
2019-02-23T20:47:17.492Z,7.88
2019-02-23T20:49:50.077Z,7.91
2019-02-23T20:52:20.428Z,7.86
2019-02-23T20:54:51.678Z,7.86
2019-02-23T20:57:22.241Z,7.91
2019-02-23T20:59:52.912Z,7.79
2019-02-23T21:02:23.523Z,7.82
2019-02-23T21:04:54.501Z,7.81
2019-02-23T21:07:25.266Z,7.79
2019-02-23T21:09:56.076Z,7.74
2019-02-23T21:12:26.687Z,7.75
2019-02-23T21:14:57.372Z,7.71
2019-02-23T21:17:30.720Z,7.75
2019-02-23T21:20:01.072Z,7.65
2019-02-23T21:22:31.675Z,7.62
2019-02-23T21:25:02.452Z,7.66
2019-02-23T21:27:33.190Z,7.62
2019-02-23T21:30:04.072Z,7.64
2019-02-23T21:32:34.790Z,7.57
2019-02-23T21:35:06.605Z,7.56
2019-02-23T21:37:37.533Z,7.55
2019-02-23T21:40:08.425Z,7.52
2019-02-23T21:42:39.041Z,7.55
2019-02-23T21:45:09.971Z,7.52
2019-02-23T21:47:40.945Z,7.57
2019-02-23T21:50:11.995Z,7.55
2019-02-23T21:52:42.922Z,7.51
2019-02-23T21:55:13.950Z,7.53
2019-02-23T21:57:44.847Z,7.49
2019-02-23T22:00:16.643Z,7.46
2019-02-23T22:02:47.438Z,7.48
2019-02-23T22:05:18.013Z,7.42
2019-02-23T22:07:48.742Z,7.44
2019-02-23T22:10:19.323Z,7.42
2019-02-23T22:12:50.550Z,7.38
2019-02-23T22:15:21.220Z,7.41
2019-02-23T22:17:51.886Z,7.35
2019-02-23T22:20:22.351Z,7.27
2019-02-23T22:22:54.697Z,7.24
2019-02-23T22:25:25.523Z,7.23
2019-02-23T22:27:56.326Z,7.18
2019-02-23T22:30:26.864Z,7.19
2019-02-23T22:32:57.406Z,7.18
2019-02-23T22:35:28.136Z,7.17
2019-02-23T22:37:59.499Z,7.10
2019-02-23T22:40:30.333Z,7.08
2019-02-23T22:43:00.839Z,7.08
2019-02-23T22:45:31.711Z,7.02
2019-02-23T22:48:02.189Z,7.04
2019-02-23T22:50:32.692Z,7.02
2019-02-23T22:53:03.469Z,6.97
2019-02-23T22:55:34.249Z,6.97
2019-02-23T22:58:05.042Z,6.97
2019-02-23T23:00:53.456Z,6.89
2019-02-23T23:03:24.373Z,6.91
2019-02-23T23:05:54.850Z,6.91
2019-02-23T23:08:25.337Z,6.86
2019-02-23T23:10:55.836Z,6.85
2019-02-23T23:13:26.284Z,6.84
2019-02-23T23:15:57.368Z,6.82
2019-02-23T23:18:27.977Z,6.83
2019-02-23T23:20:59.654Z,6.76
2019-02-23T23:23:30.830Z,6.76
2019-02-23T23:26:01.320Z,6.78
2019-02-23T23:28:31.894Z,6.73
2019-02-23T23:31:02.703Z,6.67
2019-02-23T23:33:33.248Z,6.65
2019-02-23T23:36:03.726Z,6.62
2019-02-23T23:38:34.473Z,6.59
2019-02-23T23:41:05.005Z,6.59
2019-02-23T23:43:35.467Z,6.52
2019-02-23T23:46:06.070Z,6.56
2019-02-23T23:48:36.542Z,6.48
2019-02-23T23:51:07.003Z,6.46
2019-02-23T23:53:37.780Z,6.43
2019-02-23T23:56:08.364Z,6.40
2019-02-23T23:58:38.927Z,6.39
